Time,TemperatureF,DewpointF,PressureIn,WindDirection,WindDirectionDegrees,WindSpeedMPH,WindSpeedGustMPH,Humidity,HourlyPrecipIn,Conditions,Clouds,dailyrainin,SoftwareType,DateUTC
2014-07-13 00:00:00,76.3,72.5,30.11,ENE,75,2.0,8.0,88,0.00,,,0.70,Wunderground v.1.15,2014-07-13 04:00:00,
2014-07-13 00:06:00,76.1,72.3,30.11,ENE,76,3.0,8.0,88,0.00,,,0.70,Wunderground v.1.15,2014-07-13 04:06:00,
2014-07-13 00:10:00,76.1,72.3,30.11,East,94,3.0,3.0,88,0.00,,,0.00,Wunderground v.1.15,2014-07-13 04:10:00,
2014-07-13 00:15:00,76.1,72.3,30.12,ESE,115,2.0,3.0,88,0.00,,,0.00,Wunderground v.1.15,2014-07-13 04:15:00,
2014-07-13 00:20:00,76.1,72.3,30.12,ESE,110,2.0,2.0,88,0.00,,,0.00,Wunderground v.1.15,2014-07-13 04:20:00,
2014-07-13 00:25:00,76.1,72.3,30.12,ESE,115,1.0,2.0,88,0.00,,,0.00,Wunderground v.1.15,2014-07-13 04:25:00,
2014-07-13 00:30:00,76.2,72.4,30.11,ESE,111,1.0,2.0,88,0.00,,,0.00,Wunderground v.1.15,2014-07-13 04:30:00,
2014-07-13 00:35:00,76.3,72.5,30.12,ENE,65,1.0,13.0,88,0.00,,,0.00,Wunderground v.1.15,2014-07-13 04:35:00,
2014-07-13 00:40:00,76.6,72.8,30.11,East,89,1.0,13.0,88,0.00,,,0.00,Wunderground v.1.15,2014-07-13 04:40:00,
2014-07-13 00:45:00,76.8,73.0,30.11,ESE,103,1.0,13.0,88,0.00,,,0.00,Wunderground v.1.15,2014-07-13 04:45:00,
2014-07-13 00:50:00,77.0,73.2,30.10,SE,137,1.0,1.0,88,0.00,,,0.00,Wunderground v.1.15,2014-07-13 04:50:00,
2014-07-13 00:55:00,77.1,73.3,30.10,East,98,0.0,13.0,88,0.00,,,0.00,Wunderground v.1.15,2014-07-13 04:55:00,
2014-07-13 01:00:00,77.2,73.7,30.09,ESE,104,1.0,1.0,89,0.00,,,0.00,Wunderground v.1.15,2014-07-13 05:00:00,
2014-07-13 01:06:00,77.3,73.8,30.10,SSE,148,1.0,1.0,89,0.00,,,0.00,Wunderground v.1.15,2014-07-13 05:06:00,
2014-07-13 01:15:00,77.4,73.9,30.10,East,101,1.0,1.0,89,0.00,,,0.00,Wunderground v.1.15,2014-07-13 05:15:00,
2014-07-13 01:20:00,77.5,74.0,30.11,SE,139,1.0,1.0,89,0.00,,,0.00,Wunderground v.1.15,2014-07-13 05:20:00,
2014-07-13 01:30:00,77.7,73.9,30.11,ESE,117,2.0,3.0,88,0.00,,,0.00,Wunderground v.1.15,2014-07-13 05:30:00,
2014-07-13 01:35:00,77.8,74.0,30.11,East,89,2.0,6.0,88,0.00,,,0.00,Wunderground v.1.15,2014-07-13 05:35:00,
2014-07-13 01:40:00,78.0,74.2,30.10,SE,134,3.0,3.0,88,0.00,,,0.00,Wunderground v.1.15,2014-07-13 05:40:00,
2014-07-13 01:45:00,78.1,74.3,30.10,SSE,155,2.0,6.0,88,0.00,,,0.00,Wunderground v.1.15,2014-07-13 05:45:00,
2014-07-13 01:50:00,78.1,74.3,30.10,ESE,115,2.0,6.0,88,0.00,,,0.00,Wunderground v.1.15,2014-07-13 05:50:00,
2014-07-13 01:55:00,78.3,74.5,30.10,ENE,75,2.0,6.0,88,0.00,,,0.00,Wunderground v.1.15,2014-07-13 05:55:00,
2014-07-13 02:00:00,78.4,74.2,30.10,East,86,2.0,6.0,87,0.00,,,0.00,Wunderground v.1.15,2014-07-13 06:00:00,
2014-07-13 02:06:00,78.6,74.4,30.10,ESE,112,2.0,6.0,87,0.00,,,0.00,Wunderground v.1.15,2014-07-13 06:06:00,
2014-07-13 02:15:00,78.7,74.8,30.09,South,190,2.0,2.0,88,0.00,,,0.00,Wunderground v.1.15,2014-07-13 06:15:00,
2014-07-13 02:20:00,78.8,74.9,30.09,SSE,152,3.0,3.0,88,0.00,,,0.00,Wunderground v.1.15,2014-07-13 06:20:00,
2014-07-13 02:25:00,78.9,75.0,30.09,ESE,103,3.0,4.0,88,0.00,,,0.00,Wunderground v.1.15,2014-07-13 06:25:00,
2014-07-13 02:35:00,78.8,74.9,30.09,SE,146,4.0,9.0,88,0.00,,,0.00,Wunderground v.1.15,2014-07-13 06:35:00,
2014-07-13 02:40:00,78.8,74.9,30.09,ESE,120,4.0,4.0,88,0.00,,,0.00,Wunderground v.1.15,2014-07-13 06:40:00,
2014-07-13 02:45:00,78.8,74.9,30.08,South,169,3.0,7.0,88,0.00,,,0.00,Wunderground v.1.15,2014-07-13 06:45:00,
2014-07-13 02:50:00,78.8,74.9,30.08,SE,146,3.0,9.0,88,0.00,,,0.00,Wunderground v.1.15,2014-07-13 06:50:00,
2014-07-13 02:55:00,78.8,74.6,30.08,South,169,4.0,9.0,87,0.00,,,0.00,Wunderground v.1.15,2014-07-13 06:55:00,
2014-07-13 03:00:00,78.8,74.6,30.07,SSE,155,4.0,4.0,87,0.00,,,0.00,Wunderground v.1.15,2014-07-13 07:00:00,
2014-07-13 03:06:00,78.8,74.6,30.07,SE,131,3.0,4.0,87,0.00,,,0.00,Wunderground v.1.15,2014-07-13 07:06:00,
2014-07-13 03:15:00,78.5,74.6,30.07,SE,139,2.0,2.0,88,0.00,,,0.00,Wunderground v.1.15,2014-07-13 07:15:00,
2014-07-13 03:20:00,78.5,74.6,30.07,SE,129,1.0,1.0,88,0.00,,,0.00,Wunderground v.1.15,2014-07-13 07:20:00,
2014-07-13 03:25:00,78.4,74.5,30.07,SSE,148,0.0,1.0,88,0.00,,,0.00,Wunderground v.1.15,2014-07-13 07:25:00,
2014-07-13 03:30:00,78.3,74.5,30.07,SE,129,0.0,0.0,88,0.00,,,0.00,Wunderground v.1.15,2014-07-13 07:30:00,
2014-07-13 03:40:00,78.3,74.5,30.07,ENE,69,0.0,10.0,88,0.00,,,0.00,Wunderground v.1.15,2014-07-13 07:40:00,
2014-07-13 03:45:00,78.4,74.5,30.07,ENE,72,0.0,10.0,88,0.00,,,0.00,Wunderground v.1.15,2014-07-13 07:45:00,
2014-07-13 03:50:00,78.4,74.5,30.07,ENE,59,0.0,10.0,88,0.00,,,0.00,Wunderground v.1.15,2014-07-13 07:50:00,
2014-07-13 03:55:00,78.4,74.5,30.06,ENE,58,1.0,10.0,88,0.00,,,0.00,Wunderground v.1.15,2014-07-13 07:55:00,
2014-07-13 04:00:00,78.3,74.8,30.06,NE,54,1.0,10.0,89,0.00,,,0.00,Wunderground v.1.15,2014-07-13 08:00:00,
2014-07-13 04:06:00,78.3,74.8,30.06,NE,46,1.0,10.0,89,0.00,,,0.00,Wunderground v.1.15,2014-07-13 08:06:00,
2014-07-13 04:15:00,78.2,74.7,30.06,ENE,60,1.0,1.0,89,0.00,,,0.00,Wunderground v.1.15,2014-07-13 08:15:00,
2014-07-13 04:20:00,78.1,74.6,30.06,ENE,61,0.0,0.0,89,0.00,,,0.00,Wunderground v.1.15,2014-07-13 08:20:00,
2014-07-13 04:25:00,78.1,74.6,30.06,ENE,61,0.0,0.0,89,0.00,,,0.00,Wunderground v.1.15,2014-07-13 08:25:00,
2014-07-13 04:30:00,78.0,74.5,30.06,ENE,61,0.0,0.0,89,0.00,,,0.00,Wunderground v.1.15,2014-07-13 08:30:00,
2014-07-13 04:35:00,78.0,74.5,30.06,ENE,61,0.0,5.0,89,0.00,,,0.00,Wunderground v.1.15,2014-07-13 08:35:00,
2014-07-13 04:45:00,77.8,74.6,30.06,ENE,61,0.0,5.0,90,0.00,,,0.00,Wunderground v.1.15,2014-07-13 08:45:00,
2014-07-13 04:50:00,77.8,74.6,30.06,ENE,61,0.0,5.0,90,0.00,,,0.00,Wunderground v.1.15,2014-07-13 08:50:00,
2014-07-13 04:55:00,77.8,74.6,30.06,ENE,61,0.0,5.0,90,0.00,,,0.00,Wunderground v.1.15,2014-07-13 08:55:00,
2014-07-13 05:00:00,77.8,74.6,30.06,ENE,61,0.0,5.0,90,0.00,,,0.00,Wunderground v.1.15,2014-07-13 09:00:00,
2014-07-13 05:06:00,77.8,74.6,30.05,East,98,0.0,5.0,90,0.00,,,0.00,Wunderground v.1.15,2014-07-13 09:06:00,
2014-07-13 05:15:00,77.6,74.4,30.06,East,96,0.0,0.0,90,0.00,,,0.00,Wunderground v.1.15,2014-07-13 09:15:00,
2014-07-13 05:20:00,77.5,74.3,30.06,East,84,0.0,0.0,90,0.00,,,0.00,Wunderground v.1.15,2014-07-13 09:20:00,
2014-07-13 05:25:00,77.5,74.3,30.06,East,88,0.0,0.0,90,0.00,,,0.00,Wunderground v.1.15,2014-07-13 09:25:00,
2014-07-13 05:30:00,77.4,74.2,30.06,East,88,0.0,0.0,90,0.00,,,0.00,Wunderground v.1.15,2014-07-13 09:30:00,
2014-07-13 05:35:00,77.4,74.2,30.06,ESE,120,0.0,1.0,90,0.00,,,0.00,Wunderground v.1.15,2014-07-13 09:35:00,
2014-07-13 05:40:00,77.4,74.2,30.06,ESE,122,0.0,1.0,90,0.00,,,0.00,Wunderground v.1.15,2014-07-13 09:40:00,
2014-07-13 05:50:00,77.5,74.3,30.06,SE,146,1.0,1.0,90,0.00,,,0.00,Wunderground v.1.15,2014-07-13 09:50:00,
2014-07-13 05:55:00,77.5,74.3,30.06,SE,145,0.0,1.0,90,0.00,,,0.00,Wunderground v.1.15,2014-07-13 09:55:00,
2014-07-13 06:00:00,77.6,74.1,30.06,SE,143,1.0,1.0,89,0.00,,,0.00,Wunderground v.1.15,2014-07-13 10:00:00,
2014-07-13 06:06:00,77.7,74.2,30.06,ESE,120,0.0,1.0,89,0.00,,,0.00,Wunderground v.1.15,2014-07-13 10:06:00,
2014-07-13 06:15:00,77.9,74.4,30.06,East,79,0.0,1.0,89,0.00,,,0.00,Wunderground v.1.15,2014-07-13 10:15:00,
2014-07-13 06:25:00,77.9,74.1,30.06,East,82,0.0,0.0,88,0.00,,,0.00,Wunderground v.1.15,2014-07-13 10:25:00,
2014-07-13 06:30:00,77.8,74.3,30.06,East,82,0.0,0.0,89,0.00,,,0.00,Wunderground v.1.15,2014-07-13 10:30:00,
2014-07-13 06:35:00,77.7,74.2,30.06,East,82,0.0,0.0,89,0.00,,,0.00,Wunderground v.1.15,2014-07-13 10:35:00,
2014-07-13 06:40:00,77.6,74.1,30.06,East,82,0.0,0.0,89,0.00,,,0.00,Wunderground v.1.15,2014-07-13 10:40:00,
2014-07-13 06:45:00,77.6,74.1,30.07,East,81,0.0,0.0,89,0.00,,,0.00,Wunderground v.1.15,2014-07-13 10:45:00,
2014-07-13 06:55:00,77.7,74.2,30.07,ENE,76,0.0,0.0,89,0.00,,,0.00,Wunderground v.1.15,2014-07-13 10:55:00,
2014-07-13 07:00:00,77.9,74.4,30.07,ENE,76,0.0,0.0,89,0.00,,,0.00,Wunderground v.1.15,2014-07-13 11:00:00,
2014-07-13 07:06:00,78.2,74.7,30.07,ENE,78,0.0,0.0,89,0.00,,,0.00,Wunderground v.1.15,2014-07-13 11:06:00,
2014-07-13 07:15:00,79.0,75.1,30.07,SE,129,0.0,0.0,88,0.00,,,0.00,Wunderground v.1.15,2014-07-13 11:15:00,
2014-07-13 07:20:00,79.4,75.5,30.07,SSE,162,0.0,0.0,88,0.00,,,0.00,Wunderground v.1.15,2014-07-13 11:20:00,
2014-07-13 07:30:00,80.5,75.9,30.07,SSE,167,0.0,1.0,86,0.00,,,0.00,Wunderground v.1.15,2014-07-13 11:30:00,
2014-07-13 07:35:00,80.8,75.9,30.08,SSW,195,1.0,2.0,85,0.00,,,0.00,Wunderground v.1.15,2014-07-13 11:35:00,
2014-07-13 07:40:00,81.0,76.1,30.08,SE,141,2.0,3.0,85,0.00,,,0.00,Wunderground v.1.15,2014-07-13 11:40:00,
2014-07-13 07:45:00,81.2,76.3,30.08,SE,136,2.0,3.0,85,0.00,,,0.00,Wunderground v.1.15,2014-07-13 11:45:00,
2014-07-13 07:50:00,81.7,76.4,30.08,SE,138,2.0,2.0,84,0.00,,,0.00,Wunderground v.1.15,2014-07-13 11:50:00,
2014-07-13 08:00:00,82.2,76.5,30.09,South,176,2.0,2.0,83,0.00,,,0.00,Wunderground v.1.15,2014-07-13 12:00:00,
2014-07-13 08:06:00,82.6,76.9,30.09,SE,129,2.0,4.0,83,0.00,,,0.00,Wunderground v.1.15,2014-07-13 12:06:00,
2014-07-13 08:15:00,82.8,76.4,30.09,SSE,150,4.0,5.0,81,0.00,,,0.00,Wunderground v.1.15,2014-07-13 12:15:00,
2014-07-13 08:20:00,82.7,76.3,30.09,SSE,158,5.0,7.0,81,0.00,,,0.00,Wunderground v.1.15,2014-07-13 12:20:00,
2014-07-13 08:25:00,82.5,76.1,30.09,SE,124,6.0,7.0,81,0.00,,,0.00,Wunderground v.1.15,2014-07-13 12:25:00,